Baton Rouge, LA (70805)

2:24 PM CST on January 27, 2015 (GMT -0600)
Capital Heights | Change Station
CLOSE
Current Station
Personal Weather Station
Location: Baton Rouge, LA
Elevation: 82 ft
Nearby Weather Stations

Elev 82 ft 30.44 °N, 91.13 °W | Updated 0 second ago

Clear
Clear
77.5 °F
Feels Like 77 °F
N
0.0
Wind Variable Wind from NNW
Gusts 3.0 mph

Today
High -- | Low -- °F
--% Chance of Precip.
Yesterday
High -- | Low -- °F
Precip. -- in
6:58 AM 5:36 PM
First Quarter, 57% visible
Pressure 30.08 in
Visibility 10.0 miles
Clouds Clear
Heat Index 77 °F
Dew Point 38 °F
Humidity 24%
Rainfall 0.00 in
Snow Depth Not available.
UV 4 out of 12
Pollen 7.00 out of 12
Air Quality Not available.
Flu Activity Not available.
METAR KBTR 271953Z 01006KT 10SM CLR 24/00 A3008 RMK AO2 SLP185 T02390000

More Conditions Fewer Conditions

Pressure 30.08 in
Visibility 10.0 miles
Clouds Clear
Heat Index 77 °F
Dew Point 38 °F
Humidity 24%
Rainfall 0.00 in
Snow Depth Not available.
UV 4 out of 12
Pollen 7.00 out of 12
Air Quality Not available.
Flu Activity Not available.
METAR KBTR 271953Z 01006KT 10SM CLR 24/00 A3008 RMK AO2 SLP185 T02390000

More Conditions Fewer Conditions

10-Day Weather Forecast

Almanac

Astronomy

Jan. 27, 2015 Rise Set
Actual Time
Civil Twilight
Nautical Twilight
Astronomical Twilight
Moon
Length of Visible Light
Length of Day
Tomorrow will be .
, % of the Moon is Illuminated

Today's Extremes

State Highs State Lows

Community

WunderPhotos

Upload Photos

1,790,887 photos uploaded!

WunderBlogs® & News

Nearby

Air Quality

  Air Quality AQ Index Pollutant
Not available.

Snow Depth

Station Depth Elevation

Earthquake Activity

City Distance Mag. Time & Date
Minimum magnitude displayed is 2.5.

Coastal Water Temperatures

Place Temperature

Nearby Weather Stations